Time;durP1;ratioP1;P1;durP2;ratioP2;P2;SDS_P1;SDS_P2;PMS_P1;PMS_P2;Temp;Humidity;BMP_temperature;BMP_pressure;BME280_temperature;BME280_humidity;BME280_pressure;Samples;Min_cycle;Max_cycle;Signal;HPM_P1;HPM_P2
2022/09/05 00:00:18;;;;;;;5.00;3.03;;;20.40;97.80;;;;;;5037709;28;20047;-77
2022/09/05 00:02:58;;;;;;;4.85;2.60;;;20.40;97.90;;;;;;5021609;28;20492;-77
2022/09/05 00:05:37;;;;;;;7.97;2.58;;;20.40;98.00;;;;;;5037764;28;20046;-79
2022/09/05 00:08:30;;;;;;;5.20;2.70;;;20.30;98.00;;;;;;5037460;28;20039;-79
2022/09/05 00:11:21;;;;;;;4.65;2.40;;;20.30;98.10;;;;;;5036990;28;20042;-79
2022/09/05 00:14:14;;;;;;;5.80;2.60;;;20.20;98.20;;;;;;5037602;28;20459;-79
2022/09/05 00:16:49;;;;;;;4.18;2.40;;;20.20;98.40;;;;;;5020644;28;20093;-79
2022/09/05 00:19:20;;;;;;;2.97;2.60;;;20.20;98.30;;;;;;5020740;28;20050;-79
2022/09/05 00:22:24;;;;;;;3.95;2.50;;;20.20;98.40;;;;;;5037240;28;20047;-79
2022/09/05 00:24:52;;;;;;;2.97;2.42;;;20.10;98.50;;;;;;5037087;28;20081;-77
2022/09/05 00:27:55;;;;;;;3.65;2.65;;;20.10;98.40;;;;;;5037060;28;20039;-78
2022/09/05 00:30:21;;;;;;;5.35;2.78;;;20.10;98.50;;;;;;5037348;28;20050;-78
2022/09/05 00:33:02;;;;;;;3.45;2.75;;;20.10;98.40;;;;;;5020935;28;20043;-78
2022/09/05 00:35:40;;;;;;;4.53;2.70;;;20.00;98.50;;;;;;5037315;28;20193;-77
2022/09/05 00:38:13;;;;;;;4.43;2.78;;;20.00;98.60;;;;;;5037423;28;20157;-78
2022/09/05 00:40:48;;;;;;;4.45;2.70;;;20.00;98.70;;;;;;5037046;28;20165;-78
2022/09/05 00:43:28;;;;;;;5.38;2.90;;;20.00;98.70;;;;;;5037148;28;20121;-78
2022/09/05 00:46:03;;;;;;;3.25;2.55;;;20.00;98.60;;;;;;5039982;28;20103;-78
2022/09/05 00:48:50;;;;;;;6.00;2.88;;;19.90;98.70;;;;;;5041048;28;20092;-78
2022/09/05 00:51:30;;;;;;;5.82;3.05;;;19.90;98.70;;;;;;5024378;28;20047;-78
2022/09/05 00:54:33;;;;;;;4.78;2.67;;;19.90;98.90;;;;;;5040653;28;20051;-78
2022/09/05 00:57:34;;;;;;;5.57;3.10;;;19.80;99.00;;;;;;5040866;28;20034;-79
2022/09/05 01:00:12;;;;;;;4.50;3.10;;;19.80;99.00;;;;;;5040674;28;20408;-79
2022/09/05 01:02:53;;;;;;;4.57;2.80;;;19.70;99.10;;;;;;5024092;28;20046;-78
2022/09/05 01:05:27;;;;;;;3.85;3.00;;;19.70;99.10;;;;;;5023781;28;20497;-78
2022/09/05 01:08:11;;;;;;;4.30;2.83;;;19.70;99.20;;;;;;5023446;28;20038;-78
2022/09/05 01:11:11;;;;;;;6.30;3.10;;;19.70;99.40;;;;;;5023669;28;20523;-78
2022/09/05 01:14:02;;;;;;;6.45;3.13;;;19.60;99.60;;;;;;5040382;28;20046;-79
2022/09/05 01:16:42;;;;;;;5.75;2.85;;;19.50;99.80;;;;;;5040011;28;20129;-79
2022/09/05 01:19:26;;;;;;;4.72;2.90;;;19.50;99.60;;;;;;5023502;28;20054;-77
2022/09/05 01:22:29;;;;;;;4.97;3.05;;;19.50;99.90;;;;;;5040181;28;20396;-79
2022/09/05 01:25:20;;;;;;;5.00;2.85;;;19.50;99.90;;;;;;5039927;28;20043;-79
2022/09/05 01:27:51;;;;;;;4.35;2.97;;;19.50;99.90;;;;;;5023418;28;20149;-79
2022/09/05 01:30:19;;;;;;;5.90;2.97;;;19.40;99.90;;;;;;5040482;28;20092;-79
2022/09/05 01:33:06;;;;;;;6.15;3.05;;;19.40;99.90;;;;;;5023188;28;20134;-79
2022/09/05 01:35:56;;;;;;;5.88;3.20;;;19.30;99.90;;;;;;5040036;28;20058;-79
2022/09/05 01:38:33;;;;;;;6.03;3.00;;;19.30;99.90;;;;;;5023570;28;20049;-79
2022/09/05 01:41:20;;;;;;;5.70;3.38;;;19.30;99.90;;;;;;5040132;28;20496;-80
2022/09/05 01:44:11;;;;;;;7.68;3.47;;;19.30;99.90;;;;;;5023221;28;20078;-78
2022/09/05 01:46:45;;;;;;;5.15;3.38;;;19.30;99.90;;;;;;5039999;28;20058;-79
2022/09/05 01:49:28;;;;;;;4.72;3.50;;;19.20;99.90;;;;;;5023363;28;20096;-79
2022/09/05 01:51:56;;;;;;;5.32;3.38;;;19.20;99.90;;;;;;5023304;28;20491;-79
2022/09/05 01:54:40;;;;;;;5.30;3.28;;;19.10;99.90;;;;;;5023043;28;20043;-78
2022/09/05 01:57:29;;;;;;;6.47;3.40;;;19.00;99.90;;;;;;5023230;28;20065;-78
2022/09/05 02:00:09;;;;;;;5.53;3.38;;;19.00;99.90;;;;;;5022926;28;20082;-77
2022/09/05 02:02:51;;;;;;;4.00;3.17;;;19.00;99.90;;;;;;5039465;28;20047;-78
2022/09/05 02:05:39;;;;;;;6.20;3.50;;;18.90;99.90;;;;;;5022867;28;20046;-78
2022/09/05 02:08:40;;;;;;;6.13;3.83;;;18.90;99.90;;;;;;5039390;28;20046;-78
2022/09/05 02:11:08;;;;;;;4.78;3.75;;;18.90;99.90;;;;;;5022563;28;20046;-78
2022/09/05 02:13:34;;;;;;;6.45;3.65;;;18.90;99.90;;;;;;5022407;28;20047;-77
2022/09/05 02:16:26;;;;;;;7.18;3.78;;;18.80;99.90;;;;;;5022687;28;20507;-77
2022/09/05 02:19:07;;;;;;;5.20;3.38;;;18.80;99.90;;;;;;5038937;28;20055;-78
2022/09/05 02:21:34;;;;;;;6.35;3.70;;;18.80;99.90;;;;;;5039212;28;20066;-78
2022/09/05 02:24:04;;;;;;;6.15;3.80;;;18.80;99.90;;;;;;5039248;28;20047;-78
2022/09/05 02:26:42;;;;;;;4.32;3.53;;;18.70;99.90;;;;;;5022580;28;20602;-78
2022/09/05 02:29:17;;;;;;;5.25;3.58;;;18.70;99.90;;;;;;5038877;28;20096;-78
2022/09/05 02:31:48;;;;;;;5.15;4.05;;;18.70;99.90;;;;;;5039196;28;20051;-78
2022/09/05 02:34:35;;;;;;;5.13;3.67;;;18.70;99.90;;;;;;5022405;28;20395;-78
2022/09/05 02:37:17;;;;;;;4.75;3.85;;;18.70;99.90;;;;;;5022314;28;20068;-78
2022/09/05 02:39:58;;;;;;;6.90;3.95;;;18.60;99.90;;;;;;5038102;28;20062;-79
2022/09/05 02:42:28;;;;;;;6.32;4.15;;;18.60;99.90;;;;;;5038879;28;20125;-78
2022/09/05 02:44:53;;;;;;;6.18;4.25;;;18.60;99.90;;;;;;5038595;28;20082;-79
2022/09/05 02:47:51;;;;;;;6.80;3.90;;;18.50;99.90;;;;;;5038486;28;20070;-79
2022/09/05 02:50:20;;;;;;;6.45;4.03;;;18.50;99.90;;;;;;5038677;28;20053;-79
2022/09/05 02:52:47;;;;;;;6.13;4.03;;;18.40;99.90;;;;;;5038484;28;20058;-79
2022/09/05 02:55:32;;;;;;;7.05;4.15;;;18.30;99.90;;;;;;5038799;28;20054;-79
2022/09/05 02:58:16;;;;;;;4.88;3.75;;;18.30;99.90;;;;;;5038922;28;20055;-78
2022/09/05 03:01:15;;;;;;;6.55;3.90;;;18.30;99.90;;;;;;5038202;28;20043;-78
2022/09/05 03:04:00;;;;;;;5.38;4.10;;;18.30;99.90;;;;;;5038441;28;20053;-79
2022/09/05 03:06:42;;;;;;;6.78;4.05;;;18.20;99.90;;;;;;5038393;28;20047;-79
2022/09/05 03:09:26;;;;;;;6.05;4.38;;;18.10;99.90;;;;;;5072110;28;20455;-79
2022/09/05 03:12:27;;;;;;;6.72;4.15;;;18.10;99.90;;;;;;5038689;28;20404;-79
2022/09/05 03:15:11;;;;;;;10.73;4.43;;;18.00;99.90;;;;;;5021964;28;20046;-77
2022/09/05 03:17:52;;;;;;;8.68;4.30;;;18.00;99.90;;;;;;5038110;28;20560;-79
2022/09/05 03:20:39;;;;;;;5.28;4.13;;;18.00;99.90;;;;;;5037960;28;20416;-78
2022/09/05 03:23:08;;;;;;;;;;;18.00;99.90;;;;;;5021957;28;20133;-78
2022/09/05 03:26:07;;;;;;;4.65;4.10;;;17.90;99.90;;;;;;5037951;28;19965;-77
2022/09/05 03:29:28;;;;;;;8.20;4.35;;;17.90;99.90;;;;;;5038262;28;20162;-79
2022/09/05 03:32:25;;;;;;;4.45;4.03;;;17.90;99.90;;;;;;5007681;28;20046;-78
2022/09/05 03:35:16;;;;;;;7.57;4.50;;;17.80;99.90;;;;;;5021480;28;20047;-78
2022/09/05 03:38:30;;;;;;;7.95;4.30;;;17.80;99.90;;;;;;5037731;28;20492;-78
2022/09/05 03:41:11;;;;;;;5.05;4.30;;;17.70;99.90;;;;;;5037931;28;20043;-78
2022/09/05 03:43:36;;;;;;;7.15;4.30;;;17.70;99.90;;;;;;5037740;28;20132;-78
2022/09/05 03:46:27;;;;;;;6.35;4.38;;;17.70;99.90;;;;;;5037417;28;20565;-78
2022/09/05 03:49:12;;;;;;;6.07;3.78;;;17.70;99.90;;;;;;5020906;28;20039;-78
2022/09/05 03:51:50;;;;;;;5.88;4.30;;;17.70;99.90;;;;;;5038474;28;20108;-78
2022/09/05 03:54:34;;;;;;;5.43;4.43;;;17.70;99.90;;;;;;5020998;28;20042;-78
2022/09/05 03:57:30;;;;;;;6.45;4.38;;;17.70;99.90;;;;;;5037572;28;20058;-78
2022/09/05 04:00:01;;;;;;;4.40;3.97;;;17.70;99.90;;;;;;5037978;28;20043;-77
2022/09/05 04:02:30;;;;;;;9.23;4.55;;;17.70;99.90;;;;;;5037849;28;20046;-78
2022/09/05 04:05:08;;;;;;;5.05;4.10;;;17.60;99.90;;;;;;5037951;28;20130;-79
2022/09/05 04:07:42;;;;;;;5.78;4.35;;;17.60;99.90;;;;;;5021216;28;20043;-79
2022/09/05 04:10:34;;;;;;;5.88;4.50;;;17.60;99.90;;;;;;5021290;28;20065;-78
2022/09/05 04:13:15;;;;;;;7.28;4.43;;;17.60;99.90;;;;;;5021256;28;20561;-78
2022/09/05 04:15:49;;;;;;;6.50;4.72;;;17.50;99.90;;;;;;5037506;28;20046;-78
2022/09/05 04:18:18;;;;;;;5.22;4.63;;;17.50;99.90;;;;;;5034832;28;20088;-78
2022/09/05 04:20:49;;;;;;;10.63;4.63;;;17.40;99.90;;;;;;5038266;28;20114;-78
2022/09/05 04:23:35;;;;;;;5.10;4.47;;;17.40;99.90;;;;;;5054941;28;20068;-78
2022/09/05 04:26:16;;;;;;;6.22;4.57;;;17.40;99.90;;;;;;5088425;28;20037;-78
2022/09/05 04:28:54;;;;;;;7.22;4.97;;;17.30;99.90;;;;;;5055159;28;20045;-78
2022/09/05 04:31:47;;;;;;;8.40;4.95;;;17.40;99.90;;;;;;5054743;28;20049;-78
2022/09/05 04:34:39;;;;;;;5.32;4.20;;;17.30;99.90;;;;;;5038493;28;20045;-78
2022/09/05 04:37:08;;;;;;;7.25;5.10;;;17.30;99.90;;;;;;5088221;28;20112;-78
2022/09/05 04:39:34;;;;;;;8.50;5.03;;;17.30;99.90;;;;;;5064136;28;20088;-78
2022/09/05 04:42:25;;;;;;;6.38;4.82;;;17.20;99.90;;;;;;5057884;28;20040;-78
2022/09/05 04:45:07;;;;;;;5.75;4.85;;;17.20;99.90;;;;;;5057946;28;20469;-78
2022/09/05 04:47:41;;;;;;;6.68;5.15;;;17.20;99.90;;;;;;5058155;28;20124;-78
2022/09/05 04:50:12;;;;;;;7.88;5.10;;;17.20;99.90;;;;;;5074662;28;20564;-78
2022/09/05 04:52:53;;;;;;;5.63;5.00;;;17.20;99.90;;;;;;5074323;28;20452;-78
2022/09/05 04:55:36;;;;;;;5.80;4.90;;;17.10;99.90;;;;;;5057739;28;20043;-78
2022/09/05 04:58:21;;;;;;;7.47;5.57;;;17.10;99.90;;;;;;5074199;28;20044;-78
2022/09/05 05:00:52;;;;;;;9.25;5.53;;;17.10;99.90;;;;;;5074047;28;20098;-78
2022/09/05 05:03:24;;;;;;;6.97;5.25;;;17.10;99.90;;;;;;5057448;28;20036;-78
2022/09/05 05:06:08;;;;;;;7.75;5.28;;;17.00;99.90;;;;;;5057355;28;20123;-79
2022/09/05 05:08:39;;;;;;;6.75;5.57;;;17.10;99.90;;;;;;5074193;28;20072;-79
2022/09/05 05:11:16;;;;;;;5.40;4.70;;;17.00;99.90;;;;;;5057649;28;20098;-79
2022/09/05 05:13:48;;;;;;;5.53;4.95;;;17.00;99.90;;;;;;5086604;28;20048;-79
2022/09/05 05:16:19;;;;;;;8.20;5.47;;;17.00;99.90;;;;;;5055279;28;20112;-80
2022/09/05 05:18:50;;;;;;;7.10;5.05;;;17.10;99.90;;;;;;5053381;28;20053;-78
2022/09/05 05:21:25;;;;;;;6.05;4.85;;;17.00;99.90;;;;;;5053412;28;20060;-78
2022/09/05 05:23:56;;;;;;;7.25;5.55;;;17.00;99.90;;;;;;5070060;28;20080;-78
2022/09/05 05:26:46;;;;;;;6.60;4.70;;;17.00;99.90;;;;;;5070092;28;20111;-78
2022/09/05 05:29:23;;;;;;;7.93;5.65;;;17.10;99.90;;;;;;5037103;28;20052;-78
2022/09/05 05:31:53;;;;;;;7.15;5.53;;;17.10;99.90;;;;;;5052608;28;20040;-78
2022/09/05 05:34:25;;;;;;;7.00;5.57;;;17.10;99.90;;;;;;5037004;28;20048;-78
2022/09/05 05:37:03;;;;;;;7.10;5.57;;;17.10;99.90;;;;;;5054299;28;20045;-78
2022/09/05 05:39:32;;;;;;;9.48;5.68;;;17.10;99.90;;;;;;5053296;28;20052;-78
2022/09/05 05:42:00;;;;;;;7.65;5.75;;;17.10;99.90;;;;;;5053884;28;20045;-78
2022/09/05 05:44:32;;;;;;;8.25;5.47;;;17.10;99.90;;;;;;5037148;28;20041;-79
2022/09/05 05:47:21;;;;;;;6.55;5.63;;;17.20;99.90;;;;;;5052840;28;20383;-79
2022/09/05 05:49:58;;;;;;;9.75;5.72;;;17.20;99.90;;;;;;5053670;28;20564;-78
2022/09/05 05:52:42;;;;;;;8.10;5.95;;;17.30;99.90;;;;;;5053496;28;20123;-79
2022/09/05 05:55:17;;;;;;;6.32;5.68;;;17.30;99.90;;;;;;5053628;28;20115;-79
2022/09/05 05:58:12;;;;;;;7.32;5.60;;;17.40;99.90;;;;;;5036972;28;20048;-79
2022/09/05 06:00:54;;;;;;;7.78;5.65;;;17.50;99.90;;;;;;5069665;28;20477;-79
2022/09/05 06:03:57;;;;;;;7.15;5.25;;;17.60;99.90;;;;;;5036861;28;20052;-79
2022/09/05 06:06:54;;;;;;;7.75;5.78;;;17.60;99.90;;;;;;5052778;28;20513;-79
2022/09/05 06:10:11;;;;;;;8.77;5.65;;;17.70;99.90;;;;;;5053179;28;20485;-79
2022/09/05 06:13:10;;;;;;;6.22;5.63;;;17.80;99.90;;;;;;5028234;28;20057;-79
2022/09/05 06:15:58;;;;;;;6.65;5.95;;;17.90;99.90;;;;;;5053083;28;20056;-78
2022/09/05 06:18:58;;;;;;;7.45;5.82;;;18.00;99.90;;;;;;5052306;28;20056;-77
2022/09/05 06:21:42;;;;;;;6.22;5.63;;;18.10;99.90;;;;;;5052797;28;20406;-78
2022/09/05 06:24:53;;;;;;;7.65;6.07;;;18.20;99.90;;;;;;5036707;28;20520;-79
2022/09/05 06:27:40;;;;;;;5.97;5.38;;;18.30;99.90;;;;;;5061572;28;20059;-79
2022/09/05 06:30:18;;;;;;;;;;;18.50;99.90;;;;;;5036721;28;20036;-79
2022/09/05 06:33:07;;;;;;;7.25;6.25;;;18.60;99.90;;;;;;5069573;28;19917;-79
2022/09/05 06:35:48;;;;;;;7.25;5.95;;;18.70;99.90;;;;;;5054327;28;20037;-79
2022/09/05 06:38:25;;;;;;;10.05;6.30;;;18.80;99.90;;;;;;5055497;28;20044;-77
2022/09/05 06:41:14;;;;;;;8.50;5.95;;;18.90;99.90;;;;;;5072393;28;20064;-79
2022/09/05 06:43:51;;;;;;;6.43;5.80;;;19.00;99.90;;;;;;5072660;28;20087;-79
2022/09/05 06:46:29;;;;;;;8.20;5.63;;;19.20;99.90;;;;;;5055828;28;20497;-79
2022/09/05 06:49:11;;;;;;;8.15;5.65;;;19.30;99.90;;;;;;5072542;28;20394;-79
2022/09/05 06:51:55;;;;;;;7.93;5.65;;;19.50;99.90;;;;;;5055973;28;20041;-79
2022/09/05 06:54:42;;;;;;;8.07;5.72;;;19.50;99.90;;;;;;5052311;28;20037;-78
2022/09/05 06:57:11;;;;;;;;;;;19.70;99.90;;;;;;5052948;28;20049;-79
2022/09/05 07:00:03;;;;;;;6.65;5.60;;;19.90;99.90;;;;;;5051860;28;19931;-79
2022/09/05 07:02:53;;;;;;;10.35;5.85;;;20.30;99.90;;;;;;5022151;28;20045;-79
2022/09/05 07:05:34;;;;;;;6.25;5.43;;;20.60;99.90;;;;;;5052394;28;20079;-78
2022/09/05 07:08:04;;;;;;;7.25;5.20;;;20.80;99.90;;;;;;5052242;28;20045;-78
2022/09/05 07:10:39;;;;;;;9.80;5.07;;;21.10;99.90;;;;;;5059918;28;20043;-79
2022/09/05 07:13:11;;;;;;;9.38;5.43;;;21.40;99.90;;;;;;5072137;28;20049;-78
2022/09/05 07:16:08;;;;;;;7.72;5.38;;;21.60;99.90;;;;;;5072452;28;20444;-79
2022/09/05 07:18:53;;;;;;;5.65;5.13;;;22.00;99.00;;;;;;5071956;28;20056;-78
2022/09/05 07:21:31;;;;;;;7.97;4.85;;;22.40;98.70;;;;;;5072100;28;20063;-79
2022/09/05 07:24:03;;;;;;;6.95;4.78;;;23.00;98.20;;;;;;5056019;28;20110;-79
2022/09/05 07:26:33;;;;;;;5.22;4.72;;;23.40;97.70;;;;;;5071915;28;20102;-79
2022/09/05 07:29:03;;;;;;;7.20;5.05;;;23.80;97.10;;;;;;5055329;28;20036;-79
2022/09/05 07:31:32;;;;;;;6.65;4.65;;;24.10;95.90;;;;;;5055026;28;20044;-79
2022/09/05 07:34:27;;;;;;;5.07;4.57;;;24.20;96.30;;;;;;5071569;28;20082;-79
2022/09/05 07:37:01;;;;;;;10.93;4.70;;;24.50;95.40;;;;;;5071691;28;20036;-79
2022/09/05 07:39:36;;;;;;;6.25;5.07;;;24.70;95.70;;;;;;5071281;28;20032;-77
2022/09/05 07:42:06;;;;;;;5.90;4.50;;;25.10;94.80;;;;;;5071567;28;20037;-78
2022/09/05 07:44:36;;;;;;;6.60;5.18;;;25.30;95.10;;;;;;5054969;28;20037;-79
2022/09/05 07:47:12;;;;;;;5.28;4.55;;;25.50;94.90;;;;;;5034701;28;20041;-80
2022/09/05 07:49:38;;;;;;;6.10;5.50;;;25.50;94.50;;;;;;5051757;28;20436;-79
2022/09/05 07:52:20;;;;;;;5.85;4.80;;;25.50;93.90;;;;;;5034352;28;20048;-79
2022/09/05 07:54:51;;;;;;;6.25;5.00;;;25.50;93.80;;;;;;5055010;28;20087;-79
2022/09/05 07:57:20;;;;;;;5.72;4.82;;;25.50;94.40;;;;;;5055526;28;20044;-79
2022/09/05 07:59:50;;;;;;;5.28;4.53;;;25.60;93.90;;;;;;5038675;28;20517;-79
2022/09/05 08:02:16;;;;;;;5.63;4.10;;;25.80;94.50;;;;;;5055202;28;20124;-79
2022/09/05 08:04:42;;;;;;;7.15;4.70;;;25.90;94.40;;;;;;5055469;28;20199;-79
2022/09/05 08:07:13;;;;;;;7.03;4.63;;;26.00;93.90;;;;;;5055382;28;20132;-79
2022/09/05 08:09:52;;;;;;;5.35;4.70;;;26.00;94.30;;;;;;5055454;28;20053;-79
2022/09/05 08:12:32;;;;;;;6.25;4.57;;;26.40;93.90;;;;;;5054756;28;20106;-79
2022/09/05 08:15:04;;;;;;;7.65;4.40;;;26.80;93.90;;;;;;5054995;28;20421;-79
2022/09/05 08:17:33;;;;;;;5.13;3.80;;;27.10;93.30;;;;;;5054420;28;20056;-79
2022/09/05 08:20:07;;;;;;;5.13;3.75;;;27.40;93.30;;;;;;5037635;28;20059;-79
2022/09/05 08:23:05;;;;;;;6.28;3.65;;;27.80;93.50;;;;;;5054661;28;20040;-80
2022/09/05 08:25:35;;;;;;;6.20;3.97;;;27.70;92.80;;;;;;5038063;28;20428;-79
2022/09/05 08:28:18;;;;;;;5.10;4.00;;;27.60;93.00;;;;;;5054628;28;20049;-79
2022/09/05 08:30:52;;;;;;;7.07;4.05;;;27.70;93.10;;;;;;5054647;28;20049;-79
2022/09/05 08:33:31;;;;;;;5.57;3.67;;;27.60;93.00;;;;;;5054469;28;20116;-79
2022/09/05 08:36:09;;;;;;;5.82;3.50;;;27.80;93.00;;;;;;5054260;28;20049;-79
2022/09/05 08:38:38;;;;;;;6.53;4.15;;;27.60;93.10;;;;;;5054421;28;20045;-79
2022/09/05 08:41:07;;;;;;;6.18;4.05;;;27.20;93.10;;;;;;5037650;28;20129;-78
2022/09/05 08:43:44;;;;;;;5.60;3.80;;;27.10;93.30;;;;;;5054137;28;20049;-79
2022/09/05 08:46:52;;;;;;;8.48;3.83;;;27.20;93.20;;;;;;5054408;28;20110;-79
2022/09/05 08:49:38;;;;;;;;;;;27.10;93.20;;;;;;5050391;28;20053;-78
2022/09/05 08:52:13;;;;;;;5.68;3.70;;;27.30;93.40;;;;;;5054347;28;19917;-78
2022/09/05 08:55:04;;;;;;;5.63;3.90;;;27.90;93.50;;;;;;5053717;28;20044;-79
2022/09/05 08:57:45;;;;;;;6.93;3.75;;;28.20;93.00;;;;;;5054176;28;20040;-78
2022/09/05 09:00:18;;;;;;;4.88;3.75;;;28.70;92.40;;;;;;5054246;28;20052;-78
2022/09/05 09:02:59;;;;;;;6.60;3.58;;;29.00;92.80;;;;;;5087643;28;20052;-79
2022/09/05 09:05:56;;;;;;;5.50;3.53;;;29.10;92.70;;;;;;5052754;28;20113;-79
2022/09/05 09:08:40;;;;;;;;;;;29.30;92.10;;;;;;5037605;28;20064;-79
2022/09/05 09:11:37;;;;;;;5.38;3.70;;;29.80;92.20;;;;;;5053823;28;19917;-79
2022/09/05 09:14:32;;;;;;;8.23;3.95;;;29.80;91.80;;;;;;5036818;28;20072;-79
2022/09/05 09:17:19;;;;;;;4.55;3.15;;;30.10;91.90;;;;;;5050026;28;20487;-78
2022/09/05 09:19:47;;;;;;;9.15;3.45;;;30.00;91.60;;;;;;5039452;28;20051;-79
2022/09/05 09:22:47;;;;;;;8.07;3.75;;;30.10;92.10;;;;;;5023659;28;20083;-79
2022/09/05 09:25:17;;;;;;;7.68;4.10;;;30.50;91.70;;;;;;5040151;28;20492;-78
2022/09/05 09:27:53;;;;;;;8.38;3.83;;;30.70;91.30;;;;;;5073171;28;20046;-78
2022/09/05 09:30:19;;;;;;;8.05;4.10;;;30.80;91.10;;;;;;5023115;28;20046;-79
2022/09/05 09:32:49;;;;;;;6.82;3.50;;;30.80;91.30;;;;;;5023273;28;20078;-79
2022/09/05 09:35:44;;;;;;;9.07;3.28;;;30.80;91.20;;;;;;5039902;28;20051;-79
2022/09/05 09:38:35;;;;;;;4.38;3.38;;;31.10;91.20;;;;;;5022840;28;20051;-79
2022/09/05 09:41:32;;;;;;;6.80;3.60;;;31.30;91.00;;;;;;5039421;28;20043;-79
2022/09/05 09:44:21;;;;;;;7.43;3.42;;;30.90;91.10;;;;;;5039716;28;20487;-79
2022/09/05 09:46:49;;;;;;;5.72;3.55;;;30.80;91.00;;;;;;5039317;28;20038;-78
2022/09/05 09:49:36;;;;;;;6.43;3.40;;;30.60;91.20;;;;;;5032768;28;20077;-79
2022/09/05 09:52:23;;;;;;;7.07;3.53;;;30.70;91.00;;;;;;5042427;28;20038;-80
2022/09/05 09:55:11;;;;;;;6.22;3.20;;;30.90;90.90;;;;;;5042855;28;20512;-77
2022/09/05 09:58:02;;;;;;;6.85;3.25;;;31.30;91.20;;;;;;5058984;28;20046;-78
2022/09/05 10:00:54;;;;;;;4.57;2.97;;;31.70;90.70;;;;;;5058849;28;20055;-79
2022/09/05 10:03:55;;;;;;;5.80;2.88;;;31.90;90.60;;;;;;5092939;28;20042;-79
2022/09/05 10:06:30;;;;;;;4.82;2.90;;;32.20;90.30;;;;;;5040138;28;20042;-79
2022/09/05 10:09:23;;;;;;;4.57;2.80;;;32.50;90.10;;;;;;5072510;28;20049;-79
2022/09/05 10:12:23;;;;;;;5.40;3.22;;;32.80;90.30;;;;;;5073263;28;20290;-79
2022/09/05 10:15:07;;;;;;;5.20;2.38;;;32.50;89.80;;;;;;5022480;28;20488;-79
2022/09/05 10:17:59;;;;;;;7.82;2.35;;;32.60;89.80;;;;;;5021959;28;20054;-79
2022/09/05 10:20:49;;;;;;;5.60;2.53;;;32.50;89.60;;;;;;5055756;28;20050;-77
2022/09/05 10:23:26;;;;;;;6.57;2.10;;;32.60;89.70;;;;;;5072434;28;20043;-78
2022/09/05 10:26:16;;;;;;;5.07;1.90;;;32.70;89.70;;;;;;5033606;28;20129;-79
2022/09/05 10:28:54;;;;;;;4.47;2.10;;;32.90;89.90;;;;;;5058599;28;20045;-79
2022/09/05 10:31:55;;;;;;;6.55;2.47;;;33.40;89.70;;;;;;5058952;28;20046;-79
2022/09/05 10:34:29;;;;;;;6.10;2.47;;;33.40;90.00;;;;;;5058554;28;20163;-79
2022/09/05 10:37:09;;;;;;;5.00;2.22;;;33.50;88.70;;;;;;5058495;28;20061;-77
2022/09/05 10:39:41;;;;;;;7.95;2.25;;;33.80;88.30;;;;;;5042518;28;20050;-79
2022/09/05 10:42:20;;;;;;;4.97;2.33;;;33.80;87.50;;;;;;5045955;28;20043;-79
2022/09/05 10:44:56;;;;;;;5.32;1.92;;;34.20;87.50;;;;;;5022187;28;20046;-79
2022/09/05 10:47:47;;;;;;;3.47;2.03;;;34.20;86.80;;;;;;5038624;28;20035;-79
2022/09/05 10:50:32;;;;;;;4.78;1.65;;;34.70;87.70;;;;;;5072479;28;20077;-79
2022/09/05 10:53:29;;;;;;;6.60;2.00;;;34.90;86.10;;;;;;5038551;28;20153;-79
2022/09/05 10:55:59;;;;;;;;;;;35.00;85.80;;;;;;5039400;28;20125;-81
2022/09/05 10:58:49;;;;;;;5.30;1.90;;;35.30;85.20;;;;;;5083043;28;19967;-80
2022/09/05 11:01:21;;;;;;;2.72;1.55;;;35.30;85.10;;;;;;5058154;28;20133;-78
2022/09/05 11:04:09;;;;;;;5.13;1.88;;;35.70;85.60;;;;;;5058003;28;20052;-79
2022/09/05 11:06:41;;;;;;;3.20;2.00;;;36.00;85.20;;;;;;5057805;28;20127;-79
2022/09/05 11:09:13;;;;;;;5.05;1.92;;;36.40;84.70;;;;;;5041448;28;20513;-79
2022/09/05 11:11:49;;;;;;;3.17;2.00;;;36.20;85.20;;;;;;5057832;28;20225;-80
2022/09/05 11:14:45;;;;;;;3.90;1.92;;;36.30;84.90;;;;;;5057591;28;20054;-77
2022/09/05 11:17:23;;;;;;;3.00;1.65;;;35.40;84.90;;;;;;5044814;28;20038;-78
2022/09/05 11:20:06;;;;;;;4.68;1.80;;;35.60;84.50;;;;;;5037954;28;20058;-79
2022/09/05 11:22:44;;;;;;;3.28;1.48;;;35.60;84.30;;;;;;5021492;28;20519;-78
2022/09/05 11:25:29;;;;;;;3.47;1.67;;;35.40;85.30;;;;;;5037746;28;20125;-78
2022/09/05 11:28:02;;;;;;;2.63;1.52;;;35.30;84.10;;;;;;5020290;28;20057;-79
2022/09/05 11:30:38;;;;;;;3.90;1.70;;;35.20;84.80;;;;;;5037783;28;20054;-79
2022/09/05 11:33:19;;;;;;;5.55;1.60;;;35.30;84.50;;;;;;5038281;28;20130;-79
2022/09/05 11:35:59;;;;;;;3.72;1.70;;;35.60;84.40;;;;;;5021336;28;20134;-79
2022/09/05 11:38:50;;;;;;;3.55;1.50;;;35.60;83.70;;;;;;5021087;28;20057;-79
2022/09/05 11:41:43;;;;;;;4.00;1.67;;;35.80;83.80;;;;;;5070841;28;20557;-79
2022/09/05 11:44:11;;;;;;;3.15;1.77;;;36.30;83.50;;;;;;5054047;28;20043;-78
2022/09/05 11:47:22;;;;;;;3.22;1.60;;;35.60;83.50;;;;;;5037632;28;20046;-78
2022/09/05 11:50:03;;;;;;;4.18;1.50;;;35.80;83.10;;;;;;5037266;28;20054;-78
2022/09/05 11:53:01;;;;;;;4.88;1.50;;;36.10;83.90;;;;;;5037889;28;20530;-80
2022/09/05 11:56:07;;;;;;;3.60;1.70;;;35.90;82.70;;;;;;5068473;28;20059;-78
2022/09/05 11:58:55;;;;;;;3.67;1.47;;;35.60;83.40;;;;;;5037689;28;20100;-79
2022/09/05 12:01:29;;;;;;;5.72;1.50;;;35.70;83.50;;;;;;5037802;28;20290;-78
2022/09/05 12:04:15;;;;;;;2.40;1.63;;;35.90;83.90;;;;;;5021373;28;20042;-78
2022/09/05 12:06:41;;;;;;;;;;;36.10;83.30;;;;;;5021589;28;20150;-79
2022/09/05 12:09:16;;;;;;;3.67;1.47;;;36.40;82.50;;;;;;5037725;28;19957;-79
2022/09/05 12:11:51;;;;;;;2.75;1.67;;;36.60;82.50;;;;;;5037347;28;20301;-79
2022/09/05 12:14:42;;;;;;;1.92;1.48;;;36.60;82.50;;;;;;5037621;28;20043;-78
2022/09/05 12:17:17;;;;;;;5.53;1.80;;;36.40;82.50;;;;;;5070329;28;20547;-78
2022/09/05 12:20:01;;;;;;;3.28;1.92;;;36.20;82.60;;;;;;5037028;28;20047;-79
2022/09/05 12:22:36;;;;;;;3.55;1.58;;;36.10;82.30;;;;;;5020662;28;20039;-79
2022/09/05 12:25:10;;;;;;;5.20;1.87;;;36.30;82.50;;;;;;5037595;28;20045;-79
2022/09/05 12:27:37;;;;;;;2.92;1.70;;;36.30;82.70;;;;;;5037130;28;20046;-79
2022/09/05 12:30:08;;;;;;;5.25;1.80;;;36.50;82.60;;;;;;5004408;28;20055;-79
2022/09/05 12:32:54;;;;;;;2.83;1.80;;;37.10;82.10;;;;;;5037152;28;20047;-79
2022/09/05 12:35:52;;;;;;;4.85;1.55;;;37.00;81.70;;;;;;5036987;28;20043;-80
2022/09/05 12:38:31;;;;;;;3.55;1.90;;;36.70;83.00;;;;;;5037161;28;20054;-79
2022/09/05 12:41:15;;;;;;;4.38;1.77;;;36.30;82.40;;;;;;5040379;28;20093;-79
2022/09/05 12:44:04;;;;;;;3.80;1.83;;;36.30;83.00;;;;;;5024407;28;20095;-79
2022/09/05 12:46:46;;;;;;;2.88;2.03;;;36.30;82.50;;;;;;5040631;28;20054;-79
2022/09/05 12:49:37;;;;;;;3.50;1.95;;;36.40;81.50;;;;;;5074099;28;20100;-79
2022/09/05 12:52:25;;;;;;;3.10;2.00;;;36.50;82.30;;;;;;5024109;28;20134;-79
2022/09/05 12:54:58;;;;;;;3.70;1.70;;;36.10;82.00;;;;;;5074363;28;20043;-79
2022/09/05 12:57:33;;;;;;;4.10;1.70;;;35.90;82.80;;;;;;5073830;28;20075;-78
2022/09/05 13:00:13;;;;;;;3.43;2.10;;;35.40;82.70;;;;;;5073347;28;20059;-79
2022/09/05 13:02:52;;;;;;;3.63;1.63;;;35.00;82.70;;;;;;5079852;28;20121;-79
2022/09/05 13:05:25;;;;;;;3.13;2.03;;;34.90;83.30;;;;;;5060186;28;20449;-79
2022/09/05 13:07:57;;;;;;;2.20;1.85;;;34.80;83.70;;;;;;5059738;28;20506;-79
2022/09/05 13:10:32;;;;;;;3.15;1.85;;;34.50;82.90;;;;;;5060115;28;20578;-78
2022/09/05 13:13:06;;;;;;;4.03;2.00;;;34.40;83.70;;;;;;5059930;28;20129;-78
2022/09/05 13:15:37;;;;;;;3.97;1.77;;;34.70;83.70;;;;;;5043012;28;20054;-79
2022/09/05 13:18:19;;;;;;;3.15;1.70;;;34.90;83.60;;;;;;5059366;28;20065;-79
2022/09/05 13:21:09;;;;;;;5.30;1.58;;;34.90;83.80;;;;;;5051917;28;20047;-79
2022/09/05 13:24:11;;;;;;;2.88;1.92;;;35.50;83.50;;;;;;5023249;28;20116;-79
2022/09/05 13:26:50;;;;;;;4.82;1.80;;;35.90;82.70;;;;;;5023419;28;20467;-79
2022/09/05 13:29:26;;;;;;;3.08;1.60;;;36.10;82.10;;;;;;5039617;28;20372;-79
2022/09/05 13:32:08;;;;;;;3.35;1.60;;;35.90;82.00;;;;;;5039492;28;20086;-79
2022/09/05 13:34:45;;;;;;;3.70;1.50;;;35.70;82.00;;;;;;5040094;28;20124;-77
2022/09/05 13:37:28;;;;;;;2.38;1.40;;;34.80;82.30;;;;;;5055900;28;20495;-79
2022/09/05 13:40:08;;;;;;;2.08;1.60;;;34.20;83.20;;;;;;5042631;28;20451;-79
2022/09/05 13:42:42;;;;;;;4.72;1.60;;;33.80;83.60;;;;;;5059400;28;20034;-79
2022/09/05 13:45:14;;;;;;;3.00;1.85;;;33.20;83.60;;;;;;5060009;28;20060;-79
2022/09/05 13:48:14;;;;;;;3.45;1.60;;;33.00;84.00;;;;;;5059713;28;20043;-79
2022/09/05 13:50:45;;;;;;;4.20;1.70;;;32.90;84.10;;;;;;5058939;28;20058;-79
2022/09/05 13:53:20;;;;;;;3.08;1.75;;;33.00;84.10;;;;;;5076002;28;20046;-79
2022/09/05 13:55:52;;;;;;;3.50;1.40;;;32.80;84.40;;;;;;5042769;28;20491;-79
2022/09/05 13:58:41;;;;;;;2.42;1.40;;;32.80;84.70;;;;;;5059359;28;20187;-79
2022/09/05 14:01:25;;;;;;;3.50;1.70;;;32.70;84.00;;;;;;5039765;28;20373;-79